METAR Data
IDs: Format: Raw Decoded Include TAF

Data at: 1250 UTC 26 Feb 2021

EPWA 261230Z 32010KT 7000 RA FEW041 06/04 Q1024 NOSIG